Climax, Colorado
Current Conditions -  °F | °C
As of 11:17 PM on Tuesday 21 Oct 2014 (Local Time) from KCCU Reporting Station
Broken Clouds Broken Clouds  
Wind Chill: 32°   Ceiling: 4000
Heat Index: 37°   Visibility: 10mi
Dew Point: 28°   Wind: 7mph
Humidity: 70%   Direction: 210°SSW
Pressure: 30.32"   Gusts: 17mph
Location:  39.38°N, 106.18°W
Report Text: KCCU 220517Z AUTO 21006G15KT 10SM BKN040 BKN047 03/M02 A3032 RMK AO2 LTG DSNT W
Loading
Personal Weather Stations






























Interactive Weather Map
Tropical Storm Tracking
New forecast layout! Learn more

10-Day Weather Forecast

Advertisements
Track Severe Weather on mobile